sensor_id;sensor_type;location;lat;lon;timestamp;P1;durP1;ratioP1;P2;durP2;ratioP2
49722;SDS011;43484;43.608;1.458;2022-11-20T00:01:19;5.90;;;1.27;;
49722;SDS011;43484;43.608;1.458;2022-11-20T00:03:47;3.10;;;1.95;;
49722;SDS011;43484;43.608;1.458;2022-11-20T00:06:15;3.88;;;1.52;;
49722;SDS011;43484;43.608;1.458;2022-11-20T00:08:43;5.85;;;1.42;;
49722;SDS011;43484;43.608;1.458;2022-11-20T00:11:17;4.25;;;1.83;;
49722;SDS011;43484;43.608;1.458;2022-11-20T00:13:46;3.38;;;1.50;;
49722;SDS011;43484;43.608;1.458;2022-11-20T00:16:15;6.75;;;1.65;;
49722;SDS011;43484;43.608;1.458;2022-11-20T00:18:43;4.78;;;1.38;;
49722;SDS011;43484;43.608;1.458;2022-11-20T00:21:15;2.03;;;1.27;;
49722;SDS011;43484;43.608;1.458;2022-11-20T00:23:47;6.50;;;1.10;;
49722;SDS011;43484;43.608;1.458;2022-11-20T00:26:15;1.70;;;1.10;;
49722;SDS011;43484;43.608;1.458;2022-11-20T00:28:43;4.65;;;1.40;;
49722;SDS011;43484;43.608;1.458;2022-11-20T00:31:11;5.45;;;1.15;;
49722;SDS011;43484;43.608;1.458;2022-11-20T00:33:40;2.65;;;0.98;;
49722;SDS011;43484;43.608;1.458;2022-11-20T00:36:09;2.50;;;1.17;;
49722;SDS011;43484;43.608;1.458;2022-11-20T00:38:50;2.85;;;1.30;;
49722;SDS011;43484;43.608;1.458;2022-11-20T00:41:17;5.57;;;1.30;;
49722;SDS011;43484;43.608;1.458;2022-11-20T00:43:44;4.10;;;1.15;;
49722;SDS011;43484;43.608;1.458;2022-11-20T00:46:14;4.85;;;1.38;;
49722;SDS011;43484;43.608;1.458;2022-11-20T00:48:43;3.72;;;1.23;;
49722;SDS011;43484;43.608;1.458;2022-11-20T00:51:11;3.97;;;1.25;;
49722;SDS011;43484;43.608;1.458;2022-11-20T00:53:39;2.78;;;1.20;;
49722;SDS011;43484;43.608;1.458;2022-11-20T00:56:07;5.68;;;2.05;;
49722;SDS011;43484;43.608;1.458;2022-11-20T00:58:37;2.90;;;1.13;;
49722;SDS011;43484;43.608;1.458;2022-11-20T01:01:07;2.17;;;1.23;;
49722;SDS011;43484;43.608;1.458;2022-11-20T01:03:40;4.10;;;1.50;;
49722;SDS011;43484;43.608;1.458;2022-11-20T01:06:12;2.03;;;1.00;;
49722;SDS011;43484;43.608;1.458;2022-11-20T01:08:42;3.15;;;1.10;;
49722;SDS011;43484;43.608;1.458;2022-11-20T01:11:10;3.47;;;1.10;;
49722;SDS011;43484;43.608;1.458;2022-11-20T01:13:38;5.60;;;1.00;;
49722;SDS011;43484;43.608;1.458;2022-11-20T01:18:38;1.83;;;1.00;;
49722;SDS011;43484;43.608;1.458;2022-11-20T01:21:08;2.83;;;0.80;;
49722;SDS011;43484;43.608;1.458;2022-11-20T01:23:38;5.78;;;1.00;;
49722;SDS011;43484;43.608;1.458;2022-11-20T01:26:08;3.22;;;1.02;;
49722;SDS011;43484;43.608;1.458;2022-11-20T01:28:38;3.65;;;1.10;;
49722;SDS011;43484;43.608;1.458;2022-11-20T01:31:11;3.85;;;0.90;;
49722;SDS011;43484;43.608;1.458;2022-11-20T01:33:45;2.05;;;1.00;;
49722;SDS011;43484;43.608;1.458;2022-11-20T01:36:14;2.78;;;1.10;;
49722;SDS011;43484;43.608;1.458;2022-11-20T01:38:42;5.10;;;1.30;;
49722;SDS011;43484;43.608;1.458;2022-11-20T01:41:10;1.30;;;1.00;;
49722;SDS011;43484;43.608;1.458;2022-11-20T01:43:58;3.97;;;0.95;;
49722;SDS011;43484;43.608;1.458;2022-11-20T01:46:25;2.03;;;1.20;;
49722;SDS011;43484;43.608;1.458;2022-11-20T01:49:00;3.83;;;1.20;;
49722;SDS011;43484;43.608;1.458;2022-11-20T01:54:03;1.45;;;0.90;;
49722;SDS011;43484;43.608;1.458;2022-11-20T01:56:37;3.08;;;1.27;;
49722;SDS011;43484;43.608;1.458;2022-11-20T01:59:07;5.65;;;1.73;;
49722;SDS011;43484;43.608;1.458;2022-11-20T02:01:35;2.90;;;1.30;;
49722;SDS011;43484;43.608;1.458;2022-11-20T02:04:02;2.95;;;1.50;;
49722;SDS011;43484;43.608;1.458;2022-11-20T02:06:30;5.88;;;0.90;;
49722;SDS011;43484;43.608;1.458;2022-11-20T02:09:01;2.95;;;1.02;;
49722;SDS011;43484;43.608;1.458;2022-11-20T02:11:29;2.92;;;1.52;;
49722;SDS011;43484;43.608;1.458;2022-11-20T02:13:56;4.30;;;2.10;;
49722;SDS011;43484;43.608;1.458;2022-11-20T02:16:25;4.43;;;1.48;;
49722;SDS011;43484;43.608;1.458;2022-11-20T02:18:55;6.13;;;1.30;;
49722;SDS011;43484;43.608;1.458;2022-11-20T02:24:18;5.05;;;2.05;;
49722;SDS011;43484;43.608;1.458;2022-11-20T02:29:25;6.85;;;3.60;;
49722;SDS011;43484;43.608;1.458;2022-11-20T02:31:57;7.97;;;3.05;;
49722;SDS011;43484;43.608;1.458;2022-11-20T02:34:27;6.93;;;3.72;;
49722;SDS011;43484;43.608;1.458;2022-11-20T02:36:54;6.20;;;4.57;;
49722;SDS011;43484;43.608;1.458;2022-11-20T02:39:23;7.78;;;5.50;;
49722;SDS011;43484;43.608;1.458;2022-11-20T02:41:52;6.97;;;5.57;;
49722;SDS011;43484;43.608;1.458;2022-11-20T02:44:20;9.55;;;7.10;;
49722;SDS011;43484;43.608;1.458;2022-11-20T02:46:46;13.20;;;8.93;;
49722;SDS011;43484;43.608;1.458;2022-11-20T02:49:13;11.13;;;7.82;;
49722;SDS011;43484;43.608;1.458;2022-11-20T02:51:39;10.88;;;8.32;;
49722;SDS011;43484;43.608;1.458;2022-11-20T02:54:06;8.52;;;7.63;;
49722;SDS011;43484;43.608;1.458;2022-11-20T02:56:32;8.35;;;7.55;;
49722;SDS011;43484;43.608;1.458;2022-11-20T02:58:59;11.70;;;8.35;;
49722;SDS011;43484;43.608;1.458;2022-11-20T03:01:25;10.95;;;7.93;;
49722;SDS011;43484;43.608;1.458;2022-11-20T03:03:52;10.98;;;8.02;;
49722;SDS011;43484;43.608;1.458;2022-11-20T03:06:20;10.40;;;8.43;;
49722;SDS011;43484;43.608;1.458;2022-11-20T03:08:47;9.27;;;7.95;;
49722;SDS011;43484;43.608;1.458;2022-11-20T03:11:14;9.43;;;7.30;;
49722;SDS011;43484;43.608;1.458;2022-11-20T03:13:40;10.32;;;7.38;;
49722;SDS011;43484;43.608;1.458;2022-11-20T03:16:17;7.45;;;6.35;;
49722;SDS011;43484;43.608;1.458;2022-11-20T03:18:48;7.82;;;5.85;;
49722;SDS011;43484;43.608;1.458;2022-11-20T03:21:15;5.95;;;5.30;;
49722;SDS011;43484;43.608;1.458;2022-11-20T03:23:43;6.78;;;4.30;;
49722;SDS011;43484;43.608;1.458;2022-11-20T03:26:13;6.18;;;4.13;;
49722;SDS011;43484;43.608;1.458;2022-11-20T03:28:49;6.00;;;4.35;;
49722;SDS011;43484;43.608;1.458;2022-11-20T03:31:18;9.20;;;5.22;;
49722;SDS011;43484;43.608;1.458;2022-11-20T03:33:46;7.10;;;3.60;;
49722;SDS011;43484;43.608;1.458;2022-11-20T03:36:15;7.05;;;3.97;;
49722;SDS011;43484;43.608;1.458;2022-11-20T03:38:43;6.57;;;3.70;;
49722;SDS011;43484;43.608;1.458;2022-11-20T03:41:12;6.03;;;3.63;;
49722;SDS011;43484;43.608;1.458;2022-11-20T03:43:40;3.92;;;2.83;;
49722;SDS011;43484;43.608;1.458;2022-11-20T03:46:07;3.45;;;2.92;;
49722;SDS011;43484;43.608;1.458;2022-11-20T03:48:34;6.32;;;3.50;;
49722;SDS011;43484;43.608;1.458;2022-11-20T03:51:14;7.07;;;3.50;;
49722;SDS011;43484;43.608;1.458;2022-11-20T03:53:43;5.53;;;4.13;;
49722;SDS011;43484;43.608;1.458;2022-11-20T03:56:11;6.15;;;4.45;;
49722;SDS011;43484;43.608;1.458;2022-11-20T03:58:39;5.88;;;3.72;;
49722;SDS011;43484;43.608;1.458;2022-11-20T04:01:07;7.88;;;4.28;;
49722;SDS011;43484;43.608;1.458;2022-11-20T04:03:36;6.30;;;4.05;;
49722;SDS011;43484;43.608;1.458;2022-11-20T04:06:18;8.57;;;4.32;;
49722;SDS011;43484;43.608;1.458;2022-11-20T04:08:47;8.55;;;4.38;;
49722;SDS011;43484;43.608;1.458;2022-11-20T04:11:20;9.38;;;6.18;;
49722;SDS011;43484;43.608;1.458;2022-11-20T04:13:52;8.43;;;5.97;;
49722;SDS011;43484;43.608;1.458;2022-11-20T04:16:20;9.75;;;6.13;;
49722;SDS011;43484;43.608;1.458;2022-11-20T04:18:55;6.32;;;4.75;;
49722;SDS011;43484;43.608;1.458;2022-11-20T04:21:23;6.63;;;5.40;;
49722;SDS011;43484;43.608;1.458;2022-11-20T04:23:51;9.43;;;6.53;;
49722;SDS011;43484;43.608;1.458;2022-11-20T04:26:22;7.55;;;5.88;;
49722;SDS011;43484;43.608;1.458;2022-11-20T04:28:51;8.68;;;5.53;;
49722;SDS011;43484;43.608;1.458;2022-11-20T04:31:19;7.63;;;5.72;;
49722;SDS011;43484;43.608;1.458;2022-11-20T04:33:47;8.43;;;4.80;;
49722;SDS011;43484;43.608;1.458;2022-11-20T04:36:15;8.80;;;5.30;;
49722;SDS011;43484;43.608;1.458;2022-11-20T04:38:44;6.03;;;4.40;;
49722;SDS011;43484;43.608;1.458;2022-11-20T04:41:15;6.72;;;4.05;;
49722;SDS011;43484;43.608;1.458;2022-11-20T04:43:47;7.47;;;3.88;;
49722;SDS011;43484;43.608;1.458;2022-11-20T04:46:15;6.55;;;3.92;;
49722;SDS011;43484;43.608;1.458;2022-11-20T04:48:42;5.35;;;3.97;;
49722;SDS011;43484;43.608;1.458;2022-11-20T04:51:10;11.85;;;3.47;;
49722;SDS011;43484;43.608;1.458;2022-11-20T04:53:36;7.85;;;3.28;;
49722;SDS011;43484;43.608;1.458;2022-11-20T04:56:04;9.70;;;3.45;;
49722;SDS011;43484;43.608;1.458;2022-11-20T04:58:33;5.65;;;3.40;;
49722;SDS011;43484;43.608;1.458;2022-11-20T05:01:04;5.00;;;3.40;;
49722;SDS011;43484;43.608;1.458;2022-11-20T05:03:32;6.38;;;3.05;;
49722;SDS011;43484;43.608;1.458;2022-11-20T05:06:04;7.90;;;3.58;;
49722;SDS011;43484;43.608;1.458;2022-11-20T05:08:32;6.70;;;3.30;;
49722;SDS011;43484;43.608;1.458;2022-11-20T05:11:02;5.72;;;3.15;;
49722;SDS011;43484;43.608;1.458;2022-11-20T05:13:30;3.80;;;3.35;;
49722;SDS011;43484;43.608;1.458;2022-11-20T05:16:01;6.22;;;3.40;;
49722;SDS011;43484;43.608;1.458;2022-11-20T05:18:46;5.55;;;2.92;;
49722;SDS011;43484;43.608;1.458;2022-11-20T05:21:13;7.15;;;2.65;;
49722;SDS011;43484;43.608;1.458;2022-11-20T05:23:41;4.50;;;2.88;;
49722;SDS011;43484;43.608;1.458;2022-11-20T05:26:08;3.50;;;2.70;;
49722;SDS011;43484;43.608;1.458;2022-11-20T05:28:39;6.97;;;2.53;;
49722;SDS011;43484;43.608;1.458;2022-11-20T05:31:16;8.15;;;2.83;;
49722;SDS011;43484;43.608;1.458;2022-11-20T05:33:52;3.53;;;2.55;;
49722;SDS011;43484;43.608;1.458;2022-11-20T05:36:18;6.43;;;3.08;;
49722;SDS011;43484;43.608;1.458;2022-11-20T05:38:46;5.40;;;3.10;;
49722;SDS011;43484;43.608;1.458;2022-11-20T05:41:17;5.60;;;3.33;;
49722;SDS011;43484;43.608;1.458;2022-11-20T05:43:46;3.28;;;2.85;;
49722;SDS011;43484;43.608;1.458;2022-11-20T05:46:14;5.15;;;3.00;;
49722;SDS011;43484;43.608;1.458;2022-11-20T05:48:42;6.95;;;3.35;;
49722;SDS011;43484;43.608;1.458;2022-11-20T05:51:12;4.80;;;2.50;;
49722;SDS011;43484;43.608;1.458;2022-11-20T05:53:41;5.75;;;2.80;;
49722;SDS011;43484;43.608;1.458;2022-11-20T05:56:15;3.92;;;2.47;;
49722;SDS011;43484;43.608;1.458;2022-11-20T05:58:43;3.97;;;2.10;;
49722;SDS011;43484;43.608;1.458;2022-11-20T06:03:37;3.72;;;2.63;;
49722;SDS011;43484;43.608;1.458;2022-11-20T06:06:05;3.65;;;2.83;;
49722;SDS011;43484;43.608;1.458;2022-11-20T06:08:32;4.65;;;2.92;;
49722;SDS011;43484;43.608;1.458;2022-11-20T06:11:02;4.40;;;2.70;;
49722;SDS011;43484;43.608;1.458;2022-11-20T06:13:30;6.15;;;2.80;;
49722;SDS011;43484;43.608;1.458;2022-11-20T06:15:57;6.85;;;3.00;;
49722;SDS011;43484;43.608;1.458;2022-11-20T06:18:25;5.15;;;3.05;;
49722;SDS011;43484;43.608;1.458;2022-11-20T06:21:07;9.52;;;3.15;;
49722;SDS011;43484;43.608;1.458;2022-11-20T06:23:35;6.95;;;2.75;;
49722;SDS011;43484;43.608;1.458;2022-11-20T06:26:06;3.72;;;2.85;;
49722;SDS011;43484;43.608;1.458;2022-11-20T06:28:34;5.53;;;2.22;;
49722;SDS011;43484;43.608;1.458;2022-11-20T06:31:01;3.72;;;2.85;;
49722;SDS011;43484;43.608;1.458;2022-11-20T06:33:28;4.70;;;2.22;;
49722;SDS011;43484;43.608;1.458;2022-11-20T06:35:56;3.80;;;2.70;;
49722;SDS011;43484;43.608;1.458;2022-11-20T06:38:28;4.88;;;2.80;;
49722;SDS011;43484;43.608;1.458;2022-11-20T06:40:55;4.45;;;2.40;;
49722;SDS011;43484;43.608;1.458;2022-11-20T06:43:22;9.98;;;4.32;;
49722;SDS011;43484;43.608;1.458;2022-11-20T06:45:53;5.45;;;3.05;;
49722;SDS011;43484;43.608;1.458;2022-11-20T06:48:20;7.57;;;4.50;;
49722;SDS011;43484;43.608;1.458;2022-11-20T06:50:47;7.28;;;4.68;;
49722;SDS011;43484;43.608;1.458;2022-11-20T06:53:14;8.32;;;5.10;;
49722;SDS011;43484;43.608;1.458;2022-11-20T06:55:44;8.75;;;5.30;;
49722;SDS011;43484;43.608;1.458;2022-11-20T06:58:12;8.45;;;5.15;;
49722;SDS011;43484;43.608;1.458;2022-11-20T07:00:39;6.13;;;4.65;;
49722;SDS011;43484;43.608;1.458;2022-11-20T07:03:07;8.15;;;4.63;;
49722;SDS011;43484;43.608;1.458;2022-11-20T07:05:35;8.75;;;6.03;;
49722;SDS011;43484;43.608;1.458;2022-11-20T07:08:02;7.65;;;5.32;;
49722;SDS011;43484;43.608;1.458;2022-11-20T07:10:29;7.00;;;4.50;;
49722;SDS011;43484;43.608;1.458;2022-11-20T07:12:56;8.48;;;5.43;;
49722;SDS011;43484;43.608;1.458;2022-11-20T07:15:24;11.02;;;5.97;;
49722;SDS011;43484;43.608;1.458;2022-11-20T07:17:51;10.25;;;6.47;;
49722;SDS011;43484;43.608;1.458;2022-11-20T07:20:18;10.88;;;6.20;;
49722;SDS011;43484;43.608;1.458;2022-11-20T07:22:44;14.75;;;7.15;;
49722;SDS011;43484;43.608;1.458;2022-11-20T07:25:11;23.20;;;7.28;;
49722;SDS011;43484;43.608;1.458;2022-11-20T07:27:37;23.02;;;10.60;;
49722;SDS011;43484;43.608;1.458;2022-11-20T07:30:04;15.73;;;7.55;;
49722;SDS011;43484;43.608;1.458;2022-11-20T07:32:31;11.75;;;7.70;;
49722;SDS011;43484;43.608;1.458;2022-11-20T07:34:57;16.95;;;7.40;;
49722;SDS011;43484;43.608;1.458;2022-11-20T07:37:24;19.90;;;7.15;;
49722;SDS011;43484;43.608;1.458;2022-11-20T07:39:50;23.30;;;11.38;;
49722;SDS011;43484;43.608;1.458;2022-11-20T07:42:17;21.98;;;9.52;;
49722;SDS011;43484;43.608;1.458;2022-11-20T07:44:43;16.48;;;8.85;;
49722;SDS011;43484;43.608;1.458;2022-11-20T07:47:10;22.95;;;8.65;;
49722;SDS011;43484;43.608;1.458;2022-11-20T07:49:37;18.77;;;7.93;;
49722;SDS011;43484;43.608;1.458;2022-11-20T07:52:03;12.18;;;7.45;;
49722;SDS011;43484;43.608;1.458;2022-11-20T07:54:30;16.30;;;9.15;;
49722;SDS011;43484;43.608;1.458;2022-11-20T07:56:57;15.70;;;8.63;;
49722;SDS011;43484;43.608;1.458;2022-11-20T07:59:24;15.23;;;9.15;;
49722;SDS011;43484;43.608;1.458;2022-11-20T08:01:50;20.23;;;7.60;;
49722;SDS011;43484;43.608;1.458;2022-11-20T08:04:17;14.75;;;7.80;;
49722;SDS011;43484;43.608;1.458;2022-11-20T08:06:43;11.70;;;7.50;;
49722;SDS011;43484;43.608;1.458;2022-11-20T08:09:10;9.20;;;6.15;;
49722;SDS011;43484;43.608;1.458;2022-11-20T08:11:37;9.93;;;6.03;;
49722;SDS011;43484;43.608;1.458;2022-11-20T08:14:21;9.02;;;6.55;;
49722;SDS011;43484;43.608;1.458;2022-11-20T08:16:48;8.73;;;6.13;;
49722;SDS011;43484;43.608;1.458;2022-11-20T08:19:16;12.88;;;7.22;;
49722;SDS011;43484;43.608;1.458;2022-11-20T08:21:44;8.35;;;5.63;;
49722;SDS011;43484;43.608;1.458;2022-11-20T08:24:11;7.90;;;5.20;;
49722;SDS011;43484;43.608;1.458;2022-11-20T08:26:38;8.52;;;5.93;;
49722;SDS011;43484;43.608;1.458;2022-11-20T08:29:06;8.20;;;6.20;;
49722;SDS011;43484;43.608;1.458;2022-11-20T08:31:32;4.97;;;4.47;;
49722;SDS011;43484;43.608;1.458;2022-11-20T08:34:00;9.68;;;5.85;;
49722;SDS011;43484;43.608;1.458;2022-11-20T08:36:33;7.22;;;4.82;;
49722;SDS011;43484;43.608;1.458;2022-11-20T08:39:01;7.03;;;4.90;;
49722;SDS011;43484;43.608;1.458;2022-11-20T08:41:28;7.30;;;5.07;;
49722;SDS011;43484;43.608;1.458;2022-11-20T08:44:00;8.75;;;5.95;;
49722;SDS011;43484;43.608;1.458;2022-11-20T08:46:33;7.32;;;5.15;;
49722;SDS011;43484;43.608;1.458;2022-11-20T08:49:05;5.05;;;4.00;;
49722;SDS011;43484;43.608;1.458;2022-11-20T08:51:34;5.65;;;4.38;;
49722;SDS011;43484;43.608;1.458;2022-11-20T08:54:02;7.78;;;4.97;;
49722;SDS011;43484;43.608;1.458;2022-11-20T08:56:29;9.05;;;4.95;;
49722;SDS011;43484;43.608;1.458;2022-11-20T08:58:56;8.18;;;5.18;;
49722;SDS011;43484;43.608;1.458;2022-11-20T09:01:42;9.13;;;6.00;;
49722;SDS011;43484;43.608;1.458;2022-11-20T09:04:09;14.48;;;6.90;;
49722;SDS011;43484;43.608;1.458;2022-11-20T09:06:37;12.18;;;7.30;;
49722;SDS011;43484;43.608;1.458;2022-11-20T09:09:04;12.57;;;8.68;;
49722;SDS011;43484;43.608;1.458;2022-11-20T09:11:32;20.90;;;10.90;;
49722;SDS011;43484;43.608;1.458;2022-11-20T09:14:00;10.18;;;7.00;;
49722;SDS011;43484;43.608;1.458;2022-11-20T09:16:28;8.43;;;6.35;;
49722;SDS011;43484;43.608;1.458;2022-11-20T09:18:55;12.07;;;7.18;;
49722;SDS011;43484;43.608;1.458;2022-11-20T09:21:41;10.02;;;6.35;;
49722;SDS011;43484;43.608;1.458;2022-11-20T09:24:08;9.27;;;6.65;;
49722;SDS011;43484;43.608;1.458;2022-11-20T09:26:35;10.38;;;6.88;;
49722;SDS011;43484;43.608;1.458;2022-11-20T09:29:01;15.57;;;8.65;;
49722;SDS011;43484;43.608;1.458;2022-11-20T09:31:28;21.75;;;9.05;;
49722;SDS011;43484;43.608;1.458;2022-11-20T09:33:54;7.20;;;5.32;;
49722;SDS011;43484;43.608;1.458;2022-11-20T09:36:21;8.80;;;5.10;;
49722;SDS011;43484;43.608;1.458;2022-11-20T09:38:48;6.68;;;5.07;;
49722;SDS011;43484;43.608;1.458;2022-11-20T09:41:38;10.95;;;6.40;;
49722;SDS011;43484;43.608;1.458;2022-11-20T09:50:31;9.00;;;5.50;;
49722;SDS011;43484;43.608;1.458;2022-11-20T09:55:55;26.92;;;12.07;;
49722;SDS011;43484;43.608;1.458;2022-11-20T09:58:31;14.68;;;8.02;;
49722;SDS011;43484;43.608;1.458;2022-11-20T10:01:09;9.20;;;6.22;;
49722;SDS011;43484;43.608;1.458;2022-11-20T10:06:28;8.23;;;4.80;;
49722;SDS011;43484;43.608;1.458;2022-11-20T10:14:29;5.72;;;4.53;;
49722;SDS011;43484;43.608;1.458;2022-11-20T10:22:47;8.02;;;5.25;;
49722;SDS011;43484;43.608;1.458;2022-11-20T10:25:30;6.88;;;5.00;;
49722;SDS011;43484;43.608;1.458;2022-11-20T10:28:15;5.72;;;4.68;;
49722;SDS011;43484;43.608;1.458;2022-11-20T10:30:44;11.55;;;5.72;;
49722;SDS011;43484;43.608;1.458;2022-11-20T10:33:21;10.68;;;4.93;;
49722;SDS011;43484;43.608;1.458;2022-11-20T10:36:25;8.05;;;4.93;;
49722;SDS011;43484;43.608;1.458;2022-11-20T10:38:47;10.75;;;6.53;;
49722;SDS011;43484;43.608;1.458;2022-11-20T10:41:20;8.07;;;6.03;;
49722;SDS011;43484;43.608;1.458;2022-11-20T10:44:05;8.35;;;5.40;;
49722;SDS011;43484;43.608;1.458;2022-11-20T10:46:40;17.60;;;7.80;;
49722;SDS011;43484;43.608;1.458;2022-11-20T10:49:12;11.10;;;5.63;;
49722;SDS011;43484;43.608;1.458;2022-11-20T10:57:21;9.63;;;5.10;;
49722;SDS011;43484;43.608;1.458;2022-11-20T11:00:17;7.00;;;4.63;;
49722;SDS011;43484;43.608;1.458;2022-11-20T11:02:46;8.82;;;5.85;;
49722;SDS011;43484;43.608;1.458;2022-11-20T11:07:57;10.82;;;4.90;;
49722;SDS011;43484;43.608;1.458;2022-11-20T11:13:23;3.90;;;3.45;;
49722;SDS011;43484;43.608;1.458;2022-11-20T11:15:55;5.30;;;4.45;;
49722;SDS011;43484;43.608;1.458;2022-11-20T11:18:25;4.97;;;3.70;;
49722;SDS011;43484;43.608;1.458;2022-11-20T11:20:57;8.05;;;3.55;;
49722;SDS011;43484;43.608;1.458;2022-11-20T11:26:18;9.52;;;4.70;;
49722;SDS011;43484;43.608;1.458;2022-11-20T11:28:56;5.38;;;3.58;;
49722;SDS011;43484;43.608;1.458;2022-11-20T11:31:25;4.55;;;3.33;;
49722;SDS011;43484;43.608;1.458;2022-11-20T11:34:03;6.10;;;3.38;;
49722;SDS011;43484;43.608;1.458;2022-11-20T11:36:38;6.55;;;3.88;;
49722;SDS011;43484;43.608;1.458;2022-11-20T11:39:10;11.95;;;4.00;;
49722;SDS011;43484;43.608;1.458;2022-11-20T11:41:41;9.40;;;4.13;;
49722;SDS011;43484;43.608;1.458;2022-11-20T11:55:14;2.70;;;2.05;;
49722;SDS011;43484;43.608;1.458;2022-11-20T11:57:47;7.85;;;3.92;;
49722;SDS011;43484;43.608;1.458;2022-11-20T12:00:21;8.82;;;5.22;;
49722;SDS011;43484;43.608;1.458;2022-11-20T12:02:53;4.85;;;2.90;;
49722;SDS011;43484;43.608;1.458;2022-11-20T12:05:49;6.35;;;2.92;;
49722;SDS011;43484;43.608;1.458;2022-11-20T12:08:30;4.95;;;2.92;;
49722;SDS011;43484;43.608;1.458;2022-11-20T12:11:20;5.80;;;3.47;;
49722;SDS011;43484;43.608;1.458;2022-11-20T12:16:27;6.18;;;2.63;;
49722;SDS011;43484;43.608;1.458;2022-11-20T12:18:58;2.75;;;2.00;;
49722;SDS011;43484;43.608;1.458;2022-11-20T12:21:28;4.57;;;3.00;;
49722;SDS011;43484;43.608;1.458;2022-11-20T12:24:06;6.57;;;2.50;;
49722;SDS011;43484;43.608;1.458;2022-11-20T12:58:17;5.53;;;2.78;;
49722;SDS011;43484;43.608;1.458;2022-11-20T13:01:09;5.55;;;2.22;;
49722;SDS011;43484;43.608;1.458;2022-11-20T13:04:16;4.47;;;2.42;;
49722;SDS011;43484;43.608;1.458;2022-11-20T13:06:55;4.13;;;1.77;;
49722;SDS011;43484;43.608;1.458;2022-11-20T13:09:22;11.45;;;2.58;;
49722;SDS011;43484;43.608;1.458;2022-11-20T13:12:04;3.33;;;1.75;;
49722;SDS011;43484;43.608;1.458;2022-11-20T13:17:38;11.32;;;6.07;;
49722;SDS011;43484;43.608;1.458;2022-11-20T13:20:09;13.75;;;6.05;;
49722;SDS011;43484;43.608;1.458;2022-11-20T13:25:10;3.33;;;1.05;;
49722;SDS011;43484;43.608;1.458;2022-11-20T13:27:48;4.03;;;1.23;;
49722;SDS011;43484;43.608;1.458;2022-11-20T13:30:17;2.90;;;2.00;;
49722;SDS011;43484;43.608;1.458;2022-11-20T13:32:48;4.15;;;2.08;;
49722;SDS011;43484;43.608;1.458;2022-11-20T13:40:38;7.60;;;3.67;;
49722;SDS011;43484;43.608;1.458;2022-11-20T13:43:26;5.40;;;2.10;;
49722;SDS011;43484;43.608;1.458;2022-11-20T13:46:09;6.97;;;3.47;;
49722;SDS011;43484;43.608;1.458;2022-11-20T13:48:40;5.78;;;3.38;;
49722;SDS011;43484;43.608;1.458;2022-11-20T14:02:25;5.68;;;3.58;;
49722;SDS011;43484;43.608;1.458;2022-11-20T14:04:54;9.10;;;3.10;;
49722;SDS011;43484;43.608;1.458;2022-11-20T14:07:27;7.97;;;2.53;;
49722;SDS011;43484;43.608;1.458;2022-11-20T14:10:02;8.70;;;3.33;;
49722;SDS011;43484;43.608;1.458;2022-11-20T14:12:32;21.95;;;8.77;;
49722;SDS011;43484;43.608;1.458;2022-11-20T14:14:59;5.97;;;2.20;;
49722;SDS011;43484;43.608;1.458;2022-11-20T14:17:33;9.40;;;2.40;;
49722;SDS011;43484;43.608;1.458;2022-11-20T14:20:03;14.00;;;7.60;;
49722;SDS011;43484;43.608;1.458;2022-11-20T14:22:32;4.68;;;1.23;;
49722;SDS011;43484;43.608;1.458;2022-11-20T14:27:42;11.77;;;2.88;;
49722;SDS011;43484;43.608;1.458;2022-11-20T14:30:14;8.02;;;2.80;;
49722;SDS011;43484;43.608;1.458;2022-11-20T14:32:43;11.95;;;2.67;;
49722;SDS011;43484;43.608;1.458;2022-11-20T14:35:16;8.75;;;2.42;;
49722;SDS011;43484;43.608;1.458;2022-11-20T14:37:47;7.88;;;1.50;;
49722;SDS011;43484;43.608;1.458;2022-11-20T14:40:25;8.98;;;2.42;;
49722;SDS011;43484;43.608;1.458;2022-11-20T14:42:51;9.20;;;1.35;;
49722;SDS011;43484;43.608;1.458;2022-11-20T14:45:18;15.68;;;2.35;;
49722;SDS011;43484;43.608;1.458;2022-11-20T14:47:46;12.82;;;2.00;;
49722;SDS011;43484;43.608;1.458;2022-11-20T14:50:28;7.93;;;1.77;;
49722;SDS011;43484;43.608;1.458;2022-11-20T14:52:59;10.73;;;1.55;;
49722;SDS011;43484;43.608;1.458;2022-11-20T14:58:03;8.60;;;1.55;;
49722;SDS011;43484;43.608;1.458;2022-11-20T15:00:33;18.60;;;2.13;;
49722;SDS011;43484;43.608;1.458;2022-11-20T15:03:00;19.80;;;1.98;;
49722;SDS011;43484;43.608;1.458;2022-11-20T15:05:46;18.17;;;2.63;;
49722;SDS011;43484;43.608;1.458;2022-11-20T15:08:15;17.33;;;1.95;;
49722;SDS011;43484;43.608;1.458;2022-11-20T15:10:45;15.68;;;1.40;;
49722;SDS011;43484;43.608;1.458;2022-11-20T15:13:16;10.45;;;2.15;;
49722;SDS011;43484;43.608;1.458;2022-11-20T15:15:51;24.63;;;2.58;;
49722;SDS011;43484;43.608;1.458;2022-11-20T15:18:21;12.00;;;2.15;;
49722;SDS011;43484;43.608;1.458;2022-11-20T15:20:53;25.83;;;3.17;;
49722;SDS011;43484;43.608;1.458;2022-11-20T15:23:22;17.63;;;2.58;;
49722;SDS011;43484;43.608;1.458;2022-11-20T15:25:50;18.98;;;3.55;;
49722;SDS011;43484;43.608;1.458;2022-11-20T15:28:21;19.75;;;3.25;;
49722;SDS011;43484;43.608;1.458;2022-11-20T15:31:09;19.00;;;3.28;;
49722;SDS011;43484;43.608;1.458;2022-11-20T15:33:38;20.05;;;2.78;;
49722;SDS011;43484;43.608;1.458;2022-11-20T15:36:05;19.38;;;1.98;;
49722;SDS011;43484;43.608;1.458;2022-11-20T15:38:31;17.23;;;2.28;;
49722;SDS011;43484;43.608;1.458;2022-11-20T15:40:58;19.58;;;2.42;;
49722;SDS011;43484;43.608;1.458;2022-11-20T15:43:24;24.98;;;2.88;;
49722;SDS011;43484;43.608;1.458;2022-11-20T15:45:53;14.73;;;2.58;;
49722;SDS011;43484;43.608;1.458;2022-11-20T15:48:23;12.20;;;2.20;;
49722;SDS011;43484;43.608;1.458;2022-11-20T15:51:00;16.90;;;2.70;;
49722;SDS011;43484;43.608;1.458;2022-11-20T15:53:31;17.75;;;2.58;;
49722;SDS011;43484;43.608;1.458;2022-11-20T15:55:57;23.70;;;1.85;;
49722;SDS011;43484;43.608;1.458;2022-11-20T15:58:25;18.00;;;2.67;;
49722;SDS011;43484;43.608;1.458;2022-11-20T16:00:52;19.55;;;2.60;;
49722;SDS011;43484;43.608;1.458;2022-11-20T16:03:20;24.40;;;3.90;;
49722;SDS011;43484;43.608;1.458;2022-11-20T16:05:47;21.45;;;2.65;;
49722;SDS011;43484;43.608;1.458;2022-11-20T16:08:14;13.45;;;2.25;;
49722;SDS011;43484;43.608;1.458;2022-11-20T16:10:41;12.80;;;2.65;;
49722;SDS011;43484;43.608;1.458;2022-11-20T16:13:15;26.73;;;2.83;;
49722;SDS011;43484;43.608;1.458;2022-11-20T16:16:03;15.40;;;2.90;;
49722;SDS011;43484;43.608;1.458;2022-11-20T16:18:32;19.15;;;2.55;;
49722;SDS011;43484;43.608;1.458;2022-11-20T16:20:59;24.20;;;3.58;;
49722;SDS011;43484;43.608;1.458;2022-11-20T16:23:26;19.05;;;3.25;;
49722;SDS011;43484;43.608;1.458;2022-11-20T16:25:53;13.18;;;2.30;;
49722;SDS011;43484;43.608;1.458;2022-11-20T16:28:19;26.23;;;3.70;;
49722;SDS011;43484;43.608;1.458;2022-11-20T16:30:46;18.92;;;2.42;;
49722;SDS011;43484;43.608;1.458;2022-11-20T16:33:16;26.45;;;3.38;;
49722;SDS011;43484;43.608;1.458;2022-11-20T16:35:43;25.23;;;2.97;;
49722;SDS011;43484;43.608;1.458;2022-11-20T16:38:10;16.00;;;2.55;;
49722;SDS011;43484;43.608;1.458;2022-11-20T16:40:36;16.38;;;2.47;;
49722;SDS011;43484;43.608;1.458;2022-11-20T16:43:07;20.42;;;3.90;;
49722;SDS011;43484;43.608;1.458;2022-11-20T16:45:39;22.27;;;2.80;;
49722;SDS011;43484;43.608;1.458;2022-11-20T16:48:13;16.88;;;2.55;;
49722;SDS011;43484;43.608;1.458;2022-11-20T16:50:44;12.98;;;1.63;;
49722;SDS011;43484;43.608;1.458;2022-11-20T16:53:13;9.95;;;2.25;;
49722;SDS011;43484;43.608;1.458;2022-11-20T16:55:40;15.45;;;2.70;;
49722;SDS011;43484;43.608;1.458;2022-11-20T16:58:07;13.18;;;1.80;;
49722;SDS011;43484;43.608;1.458;2022-11-20T17:00:37;9.35;;;2.05;;
49722;SDS011;43484;43.608;1.458;2022-11-20T17:03:08;8.00;;;1.20;;
49722;SDS011;43484;43.608;1.458;2022-11-20T17:05:35;10.00;;;1.90;;